sensor_id;sensor_type;location;lat;lon;timestamp;temperature;humidity
11242;DHT22;5678;52.370;9.006;2023-02-28T00:01:24;-2.60;99.90
11242;DHT22;5678;52.370;9.006;2023-02-28T00:03:53;-2.60;99.90
11242;DHT22;5678;52.370;9.006;2023-02-28T00:06:22;-2.60;99.90
11242;DHT22;5678;52.370;9.006;2023-02-28T00:08:51;-2.60;99.90
11242;DHT22;5678;52.370;9.006;2023-02-28T00:11:19;-2.60;99.90
11242;DHT22;5678;52.370;9.006;2023-02-28T00:13:47;-2.60;99.90
11242;DHT22;5678;52.370;9.006;2023-02-28T00:16:17;-1.10;99.90
11242;DHT22;5678;52.370;9.006;2023-02-28T00:18:46;-2.60;99.90
11242;DHT22;5678;52.370;9.006;2023-02-28T00:21:17;-2.60;99.90
11242;DHT22;5678;52.370;9.006;2023-02-28T00:23:46;-2.60;99.90
11242;DHT22;5678;52.370;9.006;2023-02-28T00:26:14;-2.60;99.90
11242;DHT22;5678;52.370;9.006;2023-02-28T00:28:42;-2.60;99.90
11242;DHT22;5678;52.370;9.006;2023-02-28T00:31:10;-2.70;99.90
11242;DHT22;5678;52.370;9.006;2023-02-28T00:33:38;-0.60;99.90
11242;DHT22;5678;52.370;9.006;2023-02-28T00:36:08;-2.70;99.90
11242;DHT22;5678;52.370;9.006;2023-02-28T00:38:38;-2.70;99.90
11242;DHT22;5678;52.370;9.006;2023-02-28T00:41:07;-3.00;99.90
11242;DHT22;5678;52.370;9.006;2023-02-28T00:43:36;-2.90;99.90
11242;DHT22;5678;52.370;9.006;2023-02-28T00:46:05;-3.00;99.90
11242;DHT22;5678;52.370;9.006;2023-02-28T00:48:33;-2.90;99.90
11242;DHT22;5678;52.370;9.006;2023-02-28T00:51:01;-3.00;99.90
11242;DHT22;5678;52.370;9.006;2023-02-28T00:53:30;-3.00;99.90
11242;DHT22;5678;52.370;9.006;2023-02-28T00:56:00;-3.10;99.90
11242;DHT22;5678;52.370;9.006;2023-02-28T00:58:28;-3.30;99.90
11242;DHT22;5678;52.370;9.006;2023-02-28T01:00:57;-1.40;99.90
11242;DHT22;5678;52.370;9.006;2023-02-28T01:03:25;-3.30;99.90
11242;DHT22;5678;52.370;9.006;2023-02-28T01:05:53;-3.30;99.90
11242;DHT22;5678;52.370;9.006;2023-02-28T01:08:20;-3.40;99.90
11242;DHT22;5678;52.370;9.006;2023-02-28T01:10:48;-3.40;99.90
11242;DHT22;5678;52.370;9.006;2023-02-28T01:13:18;-3.50;99.90
11242;DHT22;5678;52.370;9.006;2023-02-28T01:15:50;-3.60;99.90
11242;DHT22;5678;52.370;9.006;2023-02-28T01:18:18;-3.70;99.90
11242;DHT22;5678;52.370;9.006;2023-02-28T01:20:47;-3.50;99.90
11242;DHT22;5678;52.370;9.006;2023-02-28T01:23:15;-3.10;99.90
11242;DHT22;5678;52.370;9.006;2023-02-28T01:25:43;-4.40;99.90
11242;DHT22;5678;52.370;9.006;2023-02-28T01:28:11;-3.60;99.90
11242;DHT22;5678;52.370;9.006;2023-02-28T01:30:40;-3.40;99.90
11242;DHT22;5678;52.370;9.006;2023-02-28T01:33:08;-3.40;99.90
11242;DHT22;5678;52.370;9.006;2023-02-28T01:35:36;-3.30;99.90
11242;DHT22;5678;52.370;9.006;2023-02-28T01:38:04;-3.50;99.90
11242;DHT22;5678;52.370;9.006;2023-02-28T01:40:47;-3.70;99.90
11242;DHT22;5678;52.370;9.006;2023-02-28T01:43:20;-3.40;99.90
11242;DHT22;5678;52.370;9.006;2023-02-28T01:45:51;-3.40;99.90
11242;DHT22;5678;52.370;9.006;2023-02-28T01:48:20;-3.50;99.90
11242;DHT22;5678;52.370;9.006;2023-02-28T01:50:49;-1.70;99.90
11242;DHT22;5678;52.370;9.006;2023-02-28T01:53:21;-3.40;99.90
11242;DHT22;5678;52.370;9.006;2023-02-28T01:55:52;-3.60;99.90
11242;DHT22;5678;52.370;9.006;2023-02-28T01:58:20;-3.50;99.90
11242;DHT22;5678;52.370;9.006;2023-02-28T02:00:50;-3.60;99.90
11242;DHT22;5678;52.370;9.006;2023-02-28T02:03:20;-3.80;99.90
11242;DHT22;5678;52.370;9.006;2023-02-28T02:05:48;-3.70;99.90
11242;DHT22;5678;52.370;9.006;2023-02-28T02:08:18;-3.90;99.90
11242;DHT22;5678;52.370;9.006;2023-02-28T02:10:49;-3.90;99.90
11242;DHT22;5678;52.370;9.006;2023-02-28T02:13:29;-4.40;99.90
11242;DHT22;5678;52.370;9.006;2023-02-28T02:16:07;-4.00;99.90
11242;DHT22;5678;52.370;9.006;2023-02-28T02:18:44;-4.00;99.90
11242;DHT22;5678;52.370;9.006;2023-02-28T02:21:35;-4.20;99.90
11242;DHT22;5678;52.370;9.006;2023-02-28T02:27:22;-4.10;99.90
11242;DHT22;5678;52.370;9.006;2023-02-28T02:33:10;-4.20;99.90
11242;DHT22;5678;52.370;9.006;2023-02-28T02:35:51;-4.10;99.90
11242;DHT22;5678;52.370;9.006;2023-02-28T02:38:28;-4.10;99.90
11242;DHT22;5678;52.370;9.006;2023-02-28T02:41:05;-4.30;99.90
11242;DHT22;5678;52.370;9.006;2023-02-28T02:43:40;-2.60;99.90
11242;DHT22;5678;52.370;9.006;2023-02-28T02:46:15;-4.20;99.90
11242;DHT22;5678;52.370;9.006;2023-02-28T02:48:46;-4.00;99.90
11242;DHT22;5678;52.370;9.006;2023-02-28T02:51:17;-3.90;99.90
11242;DHT22;5678;52.370;9.006;2023-02-28T02:53:49;-4.00;99.90
11242;DHT22;5678;52.370;9.006;2023-02-28T02:56:21;-3.80;99.90
11242;DHT22;5678;52.370;9.006;2023-02-28T02:58:53;-3.70;99.90
11242;DHT22;5678;52.370;9.006;2023-02-28T03:01:25;-3.80;99.90
11242;DHT22;5678;52.370;9.006;2023-02-28T03:03:56;-3.90;99.90
11242;DHT22;5678;52.370;9.006;2023-02-28T03:06:26;-4.00;99.90
11242;DHT22;5678;52.370;9.006;2023-02-28T03:08:54;-3.80;99.90
11242;DHT22;5678;52.370;9.006;2023-02-28T03:11:22;-3.90;99.90
11242;DHT22;5678;52.370;9.006;2023-02-28T03:19:53;-4.00;99.90
11242;DHT22;5678;52.370;9.006;2023-02-28T03:22:45;-4.10;99.90
11242;DHT22;5678;52.370;9.006;2023-02-28T03:25:20;-4.20;99.90
11242;DHT22;5678;52.370;9.006;2023-02-28T03:28:04;-4.40;99.90
11242;DHT22;5678;52.370;9.006;2023-02-28T03:30:39;-4.30;99.90
11242;DHT22;5678;52.370;9.006;2023-02-28T03:33:11;-4.40;99.90
11242;DHT22;5678;52.370;9.006;2023-02-28T03:35:43;-4.40;99.90
11242;DHT22;5678;52.370;9.006;2023-02-28T03:38:18;-4.50;99.90
11242;DHT22;5678;52.370;9.006;2023-02-28T03:40:50;-4.60;99.90
11242;DHT22;5678;52.370;9.006;2023-02-28T03:43:23;-4.70;99.90
11242;DHT22;5678;52.370;9.006;2023-02-28T03:45:55;-4.70;99.90
11242;DHT22;5678;52.370;9.006;2023-02-28T03:48:27;-4.50;99.90
11242;DHT22;5678;52.370;9.006;2023-02-28T03:51:00;-4.90;99.90
11242;DHT22;5678;52.370;9.006;2023-02-28T03:53:33;-4.80;99.90
11242;DHT22;5678;52.370;9.006;2023-02-28T03:56:07;-5.30;99.90
11242;DHT22;5678;52.370;9.006;2023-02-28T03:58:41;-4.90;99.90
11242;DHT22;5678;52.370;9.006;2023-02-28T04:01:16;-4.80;99.90
11242;DHT22;5678;52.370;9.006;2023-02-28T04:03:48;-4.90;99.90
11242;DHT22;5678;52.370;9.006;2023-02-28T04:06:19;-5.00;99.90
11242;DHT22;5678;52.370;9.006;2023-02-28T04:08:49;-3.60;99.90
11242;DHT22;5678;52.370;9.006;2023-02-28T04:11:21;-5.00;99.90
11242;DHT22;5678;52.370;9.006;2023-02-28T04:13:50;-5.30;99.90
11242;DHT22;5678;52.370;9.006;2023-02-28T04:16:19;-5.10;99.90
11242;DHT22;5678;52.370;9.006;2023-02-28T04:19:00;-5.10;99.90
11242;DHT22;5678;52.370;9.006;2023-02-28T04:21:32;-5.20;99.90
11242;DHT22;5678;52.370;9.006;2023-02-28T04:24:02;-4.40;99.90
11242;DHT22;5678;52.370;9.006;2023-02-28T04:26:31;-5.10;99.90
11242;DHT22;5678;52.370;9.006;2023-02-28T04:29:00;-5.10;99.90
11242;DHT22;5678;52.370;9.006;2023-02-28T04:31:28;-5.20;99.90
11242;DHT22;5678;52.370;9.006;2023-02-28T04:33:56;-5.20;99.90
11242;DHT22;5678;52.370;9.006;2023-02-28T04:36:24;-5.40;99.90
11242;DHT22;5678;52.370;9.006;2023-02-28T04:38:53;-5.20;99.90
11242;DHT22;5678;52.370;9.006;2023-02-28T04:41:23;-5.30;99.90
11242;DHT22;5678;52.370;9.006;2023-02-28T04:43:51;-5.30;99.90
11242;DHT22;5678;52.370;9.006;2023-02-28T04:46:19;-5.60;99.90
11242;DHT22;5678;52.370;9.006;2023-02-28T04:48:47;-5.60;99.90
11242;DHT22;5678;52.370;9.006;2023-02-28T04:51:17;-5.60;99.90
11242;DHT22;5678;52.370;9.006;2023-02-28T04:53:46;-5.60;99.90
11242;DHT22;5678;52.370;9.006;2023-02-28T04:56:16;-5.60;99.90
11242;DHT22;5678;52.370;9.006;2023-02-28T04:58:45;-5.70;99.90
11242;DHT22;5678;52.370;9.006;2023-02-28T05:01:20;-5.60;99.90
11242;DHT22;5678;52.370;9.006;2023-02-28T05:03:49;-5.90;99.90
11242;DHT22;5678;52.370;9.006;2023-02-28T05:06:18;-5.80;99.90
11242;DHT22;5678;52.370;9.006;2023-02-28T05:08:46;-5.70;99.90
11242;DHT22;5678;52.370;9.006;2023-02-28T05:11:18;-5.80;99.90
11242;DHT22;5678;52.370;9.006;2023-02-28T05:13:49;-6.00;99.90
11242;DHT22;5678;52.370;9.006;2023-02-28T05:16:17;-5.80;99.90
11242;DHT22;5678;52.370;9.006;2023-02-28T05:18:46;-5.90;99.90
11242;DHT22;5678;52.370;9.006;2023-02-28T05:21:25;-5.90;99.90
11242;DHT22;5678;52.370;9.006;2023-02-28T05:23:54;-5.90;99.90
11242;DHT22;5678;52.370;9.006;2023-02-28T05:26:22;-5.90;99.90
11242;DHT22;5678;52.370;9.006;2023-02-28T05:28:52;-5.90;99.90
11242;DHT22;5678;52.370;9.006;2023-02-28T05:31:20;-6.00;99.90
11242;DHT22;5678;52.370;9.006;2023-02-28T05:33:48;-6.00;99.90
11242;DHT22;5678;52.370;9.006;2023-02-28T05:36:16;-6.00;99.90
11242;DHT22;5678;52.370;9.006;2023-02-28T05:38:46;-6.00;99.90
11242;DHT22;5678;52.370;9.006;2023-02-28T05:41:14;-6.00;99.90
11242;DHT22;5678;52.370;9.006;2023-02-28T05:43:43;-6.00;99.90
11242;DHT22;5678;52.370;9.006;2023-02-28T05:46:13;-6.00;99.90
11242;DHT22;5678;52.370;9.006;2023-02-28T05:48:43;-6.00;99.90
11242;DHT22;5678;52.370;9.006;2023-02-28T05:51:13;-6.00;99.90
11242;DHT22;5678;52.370;9.006;2023-02-28T05:53:41;-6.00;99.90
11242;DHT22;5678;52.370;9.006;2023-02-28T05:56:09;-6.10;99.90
11242;DHT22;5678;52.370;9.006;2023-02-28T05:58:37;-6.10;99.90
11242;DHT22;5678;52.370;9.006;2023-02-28T06:01:24;-6.10;99.90
11242;DHT22;5678;52.370;9.006;2023-02-28T06:03:52;-5.50;99.90
11242;DHT22;5678;52.370;9.006;2023-02-28T06:06:20;-6.30;99.90
11242;DHT22;5678;52.370;9.006;2023-02-28T06:08:48;-6.30;99.90
11242;DHT22;5678;52.370;9.006;2023-02-28T06:11:29;-6.30;99.90
11242;DHT22;5678;52.370;9.006;2023-02-28T06:13:59;-6.20;99.90
11242;DHT22;5678;52.370;9.006;2023-02-28T06:16:30;-6.20;99.90
11242;DHT22;5678;52.370;9.006;2023-02-28T06:19:00;-6.20;99.90
11242;DHT22;5678;52.370;9.006;2023-02-28T06:21:29;-6.20;99.90
11242;DHT22;5678;52.370;9.006;2023-02-28T06:23:58;-6.20;99.90
11242;DHT22;5678;52.370;9.006;2023-02-28T06:26:26;-6.10;99.90
11242;DHT22;5678;52.370;9.006;2023-02-28T06:28:54;-6.20;99.90
11242;DHT22;5678;52.370;9.006;2023-02-28T06:31:22;-6.20;99.90
11242;DHT22;5678;52.370;9.006;2023-02-28T06:33:54;-6.10;99.90
11242;DHT22;5678;52.370;9.006;2023-02-28T06:36:22;-6.00;99.90
11242;DHT22;5678;52.370;9.006;2023-02-28T06:38:50;-6.00;99.90
11242;DHT22;5678;52.370;9.006;2023-02-28T06:41:22;-5.90;99.90
11242;DHT22;5678;52.370;9.006;2023-02-28T06:43:50;-5.90;99.90
11242;DHT22;5678;52.370;9.006;2023-02-28T06:46:18;-5.80;99.90
11242;DHT22;5678;52.370;9.006;2023-02-28T06:48:46;-5.80;99.90
11242;DHT22;5678;52.370;9.006;2023-02-28T06:51:17;-5.80;99.90
11242;DHT22;5678;52.370;9.006;2023-02-28T06:53:46;-5.70;99.90
11242;DHT22;5678;52.370;9.006;2023-02-28T06:56:15;-5.70;99.90
11242;DHT22;5678;52.370;9.006;2023-02-28T06:58:46;-5.60;99.90
11242;DHT22;5678;52.370;9.006;2023-02-28T07:01:14;-5.70;99.90
11242;DHT22;5678;52.370;9.006;2023-02-28T07:03:42;-5.70;99.90
11242;DHT22;5678;52.370;9.006;2023-02-28T07:06:10;-5.70;99.90
11242;DHT22;5678;52.370;9.006;2023-02-28T07:08:40;-5.70;99.90
11242;DHT22;5678;52.370;9.006;2023-02-28T07:11:08;-5.60;99.90
11242;DHT22;5678;52.370;9.006;2023-02-28T07:13:36;-5.50;99.90
11242;DHT22;5678;52.370;9.006;2023-02-28T07:16:06;-5.50;99.90
11242;DHT22;5678;52.370;9.006;2023-02-28T07:18:36;-5.40;99.90
11242;DHT22;5678;52.370;9.006;2023-02-28T07:21:05;-5.30;99.90
11242;DHT22;5678;52.370;9.006;2023-02-28T07:23:33;-5.10;99.90
11242;DHT22;5678;52.370;9.006;2023-02-28T07:26:02;-5.00;99.90
11242;DHT22;5678;52.370;9.006;2023-02-28T07:28:30;-4.80;99.90
11242;DHT22;5678;52.370;9.006;2023-02-28T07:31:03;-4.70;99.90
11242;DHT22;5678;52.370;9.006;2023-02-28T07:33:32;-4.70;99.90
11242;DHT22;5678;52.370;9.006;2023-02-28T07:36:01;-4.50;99.90
11242;DHT22;5678;52.370;9.006;2023-02-28T07:38:29;-4.40;99.90
11242;DHT22;5678;52.370;9.006;2023-02-28T07:40:57;-4.30;99.90
11242;DHT22;5678;52.370;9.006;2023-02-28T07:43:26;-4.10;99.90
11242;DHT22;5678;52.370;9.006;2023-02-28T07:45:54;-4.00;99.90
11242;DHT22;5678;52.370;9.006;2023-02-28T07:48:21;-3.90;99.90
11242;DHT22;5678;52.370;9.006;2023-02-28T07:50:55;-3.70;99.90
11242;DHT22;5678;52.370;9.006;2023-02-28T07:53:23;-3.50;99.90
11242;DHT22;5678;52.370;9.006;2023-02-28T07:55:51;-3.40;99.90
11242;DHT22;5678;52.370;9.006;2023-02-28T07:58:22;-3.30;99.90
11242;DHT22;5678;52.370;9.006;2023-02-28T08:00:52;-3.10;99.90
11242;DHT22;5678;52.370;9.006;2023-02-28T08:03:21;-3.00;99.90
11242;DHT22;5678;52.370;9.006;2023-02-28T08:05:50;-2.90;99.90
11242;DHT22;5678;52.370;9.006;2023-02-28T08:08:19;-2.80;99.90
11242;DHT22;5678;52.370;9.006;2023-02-28T08:10:46;-2.70;99.90
11242;DHT22;5678;52.370;9.006;2023-02-28T08:13:14;-2.60;99.90
11242;DHT22;5678;52.370;9.006;2023-02-28T08:15:43;-2.50;99.90
11242;DHT22;5678;52.370;9.006;2023-02-28T08:18:13;-2.40;99.90
11242;DHT22;5678;52.370;9.006;2023-02-28T08:20:41;-2.30;99.90
11242;DHT22;5678;52.370;9.006;2023-02-28T08:23:08;-2.10;99.90
11242;DHT22;5678;52.370;9.006;2023-02-28T08:25:36;-2.00;99.90
11242;DHT22;5678;52.370;9.006;2023-02-28T08:28:04;-1.80;99.90
11242;DHT22;5678;52.370;9.006;2023-02-28T08:30:32;-1.50;99.90
11242;DHT22;5678;52.370;9.006;2023-02-28T08:33:00;-1.30;99.90
11242;DHT22;5678;52.370;9.006;2023-02-28T08:35:30;-1.10;99.90
11242;DHT22;5678;52.370;9.006;2023-02-28T08:37:57;-0.80;99.90
11242;DHT22;5678;52.370;9.006;2023-02-28T08:40:25;-0.60;99.90
11242;DHT22;5678;52.370;9.006;2023-02-28T08:42:53;-0.30;99.90
11242;DHT22;5678;52.370;9.006;2023-02-28T08:45:21;0.00;99.90
11242;DHT22;5678;52.370;9.006;2023-02-28T08:47:49;0.20;99.90
11242;DHT22;5678;52.370;9.006;2023-02-28T08:50:19;0.50;99.90
11242;DHT22;5678;52.370;9.006;2023-02-28T08:52:48;0.70;99.90
11242;DHT22;5678;52.370;9.006;2023-02-28T08:55:16;0.90;99.90
11242;DHT22;5678;52.370;9.006;2023-02-28T08:57:44;1.00;99.90
11242;DHT22;5678;52.370;9.006;2023-02-28T09:00:12;1.20;99.90
11242;DHT22;5678;52.370;9.006;2023-02-28T09:02:41;1.30;99.90
11242;DHT22;5678;52.370;9.006;2023-02-28T09:05:10;1.50;99.90
11242;DHT22;5678;52.370;9.006;2023-02-28T09:07:38;1.60;99.90
11242;DHT22;5678;52.370;9.006;2023-02-28T09:10:08;1.70;99.90
11242;DHT22;5678;52.370;9.006;2023-02-28T09:12:36;1.80;99.90
11242;DHT22;5678;52.370;9.006;2023-02-28T09:15:05;1.90;99.90
11242;DHT22;5678;52.370;9.006;2023-02-28T09:17:33;2.10;99.90
11242;DHT22;5678;52.370;9.006;2023-02-28T09:20:01;2.90;99.90
11242;DHT22;5678;52.370;9.006;2023-02-28T09:22:29;2.40;99.90
11242;DHT22;5678;52.370;9.006;2023-02-28T09:24:57;2.50;99.90
11242;DHT22;5678;52.370;9.006;2023-02-28T09:27:26;2.70;99.90
11242;DHT22;5678;52.370;9.006;2023-02-28T09:29:54;2.90;99.90
11242;DHT22;5678;52.370;9.006;2023-02-28T09:32:22;2.90;99.90
11242;DHT22;5678;52.370;9.006;2023-02-28T09:34:50;3.00;99.90
11242;DHT22;5678;52.370;9.006;2023-02-28T09:37:18;3.10;99.90
11242;DHT22;5678;52.370;9.006;2023-02-28T09:39:46;3.10;99.90
11242;DHT22;5678;52.370;9.006;2023-02-28T09:42:22;3.20;99.90
11242;DHT22;5678;52.370;9.006;2023-02-28T09:44:52;3.40;99.90
11242;DHT22;5678;52.370;9.006;2023-02-28T09:47:27;3.50;99.90
11242;DHT22;5678;52.370;9.006;2023-02-28T09:49:59;3.70;99.90
11242;DHT22;5678;52.370;9.006;2023-02-28T09:52:32;3.70;99.90
11242;DHT22;5678;52.370;9.006;2023-02-28T09:55:04;3.80;99.90
11242;DHT22;5678;52.370;9.006;2023-02-28T09:57:46;3.90;99.90
11242;DHT22;5678;52.370;9.006;2023-02-28T10:00:18;4.00;99.90
11242;DHT22;5678;52.370;9.006;2023-02-28T10:03:03;4.10;99.90
11242;DHT22;5678;52.370;9.006;2023-02-28T10:05:34;4.20;99.90
11242;DHT22;5678;52.370;9.006;2023-02-28T10:08:10;4.30;99.90
11242;DHT22;5678;52.370;9.006;2023-02-28T10:10:42;4.30;99.90
11242;DHT22;5678;52.370;9.006;2023-02-28T10:13:23;4.40;99.90
11242;DHT22;5678;52.370;9.006;2023-02-28T10:15:58;4.50;99.90
11242;DHT22;5678;52.370;9.006;2023-02-28T10:18:30;5.00;99.90
11242;DHT22;5678;52.370;9.006;2023-02-28T10:20:59;4.70;99.90
11242;DHT22;5678;52.370;9.006;2023-02-28T10:23:31;4.80;99.90
11242;DHT22;5678;52.370;9.006;2023-02-28T10:26:09;4.90;99.90
11242;DHT22;5678;52.370;9.006;2023-02-28T10:28:39;5.00;99.90
11242;DHT22;5678;52.370;9.006;2023-02-28T10:31:11;5.60;99.90
11242;DHT22;5678;52.370;9.006;2023-02-28T10:33:42;5.20;99.90
11242;DHT22;5678;52.370;9.006;2023-02-28T10:36:13;5.70;99.90
11242;DHT22;5678;52.370;9.006;2023-02-28T10:38:43;5.30;99.90
11242;DHT22;5678;52.370;9.006;2023-02-28T10:41:13;5.40;99.90
11242;DHT22;5678;52.370;9.006;2023-02-28T10:43:43;5.40;99.90
11242;DHT22;5678;52.370;9.006;2023-02-28T10:46:16;5.40;99.90
11242;DHT22;5678;52.370;9.006;2023-02-28T10:49:02;5.70;99.90
11242;DHT22;5678;52.370;9.006;2023-02-28T10:51:36;5.50;99.90
11242;DHT22;5678;52.370;9.006;2023-02-28T10:54:04;5.90;99.90
11242;DHT22;5678;52.370;9.006;2023-02-28T10:56:33;5.50;99.90
11242;DHT22;5678;52.370;9.006;2023-02-28T10:59:03;5.50;99.90
11242;DHT22;5678;52.370;9.006;2023-02-28T11:01:49;5.70;99.90
11242;DHT22;5678;52.370;9.006;2023-02-28T11:04:33;5.80;99.90
11242;DHT22;5678;52.370;9.006;2023-02-28T11:07:06;5.90;99.90
11242;DHT22;5678;52.370;9.006;2023-02-28T11:09:35;5.90;99.90
11242;DHT22;5678;52.370;9.006;2023-02-28T11:12:07;6.00;99.90
11242;DHT22;5678;52.370;9.006;2023-02-28T11:14:43;5.90;99.90
11242;DHT22;5678;52.370;9.006;2023-02-28T11:17:20;6.00;99.90
11242;DHT22;5678;52.370;9.006;2023-02-28T11:19:51;6.10;99.90
11242;DHT22;5678;52.370;9.006;2023-02-28T11:22:21;6.70;99.90
11242;DHT22;5678;52.370;9.006;2023-02-28T11:24:52;6.20;99.90
11242;DHT22;5678;52.370;9.006;2023-02-28T11:27:44;6.20;99.90
11242;DHT22;5678;52.370;9.006;2023-02-28T11:30:27;6.10;99.90
11242;DHT22;5678;52.370;9.006;2023-02-28T11:32:57;6.30;99.90
11242;DHT22;5678;52.370;9.006;2023-02-28T11:35:28;6.30;99.90
11242;DHT22;5678;52.370;9.006;2023-02-28T11:37:58;6.30;99.90
11242;DHT22;5678;52.370;9.006;2023-02-28T11:40:31;6.40;99.90
11242;DHT22;5678;52.370;9.006;2023-02-28T11:43:19;6.60;99.90
11242;DHT22;5678;52.370;9.006;2023-02-28T11:46:01;6.80;99.90
11242;DHT22;5678;52.370;9.006;2023-02-28T11:48:43;7.10;99.90
11242;DHT22;5678;52.370;9.006;2023-02-28T11:51:19;6.80;99.90
11242;DHT22;5678;52.370;9.006;2023-02-28T11:54:02;6.70;99.90
11242;DHT22;5678;52.370;9.006;2023-02-28T11:56:36;6.40;99.90
11242;DHT22;5678;52.370;9.006;2023-02-28T11:59:20;6.60;99.90
11242;DHT22;5678;52.370;9.006;2023-02-28T12:05:12;5.80;99.90
11242;DHT22;5678;52.370;9.006;2023-02-28T12:07:50;5.50;99.90
11242;DHT22;5678;52.370;9.006;2023-02-28T12:10:26;5.50;99.90
11242;DHT22;5678;52.370;9.006;2023-02-28T12:13:07;5.70;99.90
11242;DHT22;5678;52.370;9.006;2023-02-28T12:16:08;5.70;99.90
11242;DHT22;5678;52.370;9.006;2023-02-28T12:18:53;5.70;99.90
11242;DHT22;5678;52.370;9.006;2023-02-28T12:21:33;5.90;99.90
11242;DHT22;5678;52.370;9.006;2023-02-28T12:24:31;6.10;99.90
11242;DHT22;5678;52.370;9.006;2023-02-28T12:27:05;6.00;99.90
11242;DHT22;5678;52.370;9.006;2023-02-28T12:29:43;5.80;99.90
11242;DHT22;5678;52.370;9.006;2023-02-28T12:32:18;5.80;99.90
11242;DHT22;5678;52.370;9.006;2023-02-28T12:34:50;5.70;99.90
11242;DHT22;5678;52.370;9.006;2023-02-28T12:37:24;6.50;99.90
11242;DHT22;5678;52.370;9.006;2023-02-28T12:39:59;5.80;99.90
11242;DHT22;5678;52.370;9.006;2023-02-28T12:42:35;5.80;99.90
11242;DHT22;5678;52.370;9.006;2023-02-28T12:45:10;5.90;99.90
11242;DHT22;5678;52.370;9.006;2023-02-28T12:47:38;6.00;99.90
11242;DHT22;5678;52.370;9.006;2023-02-28T12:50:10;6.50;99.90
11242;DHT22;5678;52.370;9.006;2023-02-28T12:52:47;6.20;99.90
11242;DHT22;5678;52.370;9.006;2023-02-28T12:55:21;6.50;99.90
11242;DHT22;5678;52.370;9.006;2023-02-28T12:58:00;6.10;99.90
11242;DHT22;5678;52.370;9.006;2023-02-28T13:00:34;6.70;99.90
11242;DHT22;5678;52.370;9.006;2023-02-28T13:03:28;6.10;99.90
11242;DHT22;5678;52.370;9.006;2023-02-28T13:06:16;6.10;99.90
11242;DHT22;5678;52.370;9.006;2023-02-28T13:09:10;6.10;99.90
11242;DHT22;5678;52.370;9.006;2023-02-28T13:11:41;6.10;99.90
11242;DHT22;5678;52.370;9.006;2023-02-28T13:14:24;6.10;99.90
11242;DHT22;5678;52.370;9.006;2023-02-28T13:17:09;6.10;99.90
11242;DHT22;5678;52.370;9.006;2023-02-28T13:19:40;6.20;99.90
11242;DHT22;5678;52.370;9.006;2023-02-28T13:22:18;6.90;99.90
11242;DHT22;5678;52.370;9.006;2023-02-28T13:24:49;6.30;99.90
11242;DHT22;5678;52.370;9.006;2023-02-28T13:27:34;6.60;99.90
11242;DHT22;5678;52.370;9.006;2023-02-28T13:31:00;6.20;99.90
11242;DHT22;5678;52.370;9.006;2023-02-28T13:33:29;6.10;99.90
11242;DHT22;5678;52.370;9.006;2023-02-28T13:36:23;6.40;99.90
11242;DHT22;5678;52.370;9.006;2023-02-28T13:38:52;6.10;99.90
11242;DHT22;5678;52.370;9.006;2023-02-28T13:41:48;6.10;99.90
11242;DHT22;5678;52.370;9.006;2023-02-28T13:44:18;6.10;99.90
11242;DHT22;5678;52.370;9.006;2023-02-28T13:47:20;6.10;99.90
11242;DHT22;5678;52.370;9.006;2023-02-28T13:49:50;6.00;99.90
11242;DHT22;5678;52.370;9.006;2023-02-28T13:52:22;6.00;99.90
11242;DHT22;5678;52.370;9.006;2023-02-28T13:57:54;6.00;99.90
11242;DHT22;5678;52.370;9.006;2023-02-28T14:00:37;6.20;99.90
11242;DHT22;5678;52.370;9.006;2023-02-28T14:03:23;6.50;99.90
11242;DHT22;5678;52.370;9.006;2023-02-28T14:06:08;6.30;99.90
11242;DHT22;5678;52.370;9.006;2023-02-28T14:08:36;6.00;99.90
11242;DHT22;5678;52.370;9.006;2023-02-28T14:11:06;6.00;99.90
11242;DHT22;5678;52.370;9.006;2023-02-28T14:13:42;6.00;99.90
11242;DHT22;5678;52.370;9.006;2023-02-28T14:16:15;6.20;99.90
11242;DHT22;5678;52.370;9.006;2023-02-28T14:18:49;6.00;99.90
11242;DHT22;5678;52.370;9.006;2023-02-28T14:21:22;6.20;99.90
11242;DHT22;5678;52.370;9.006;2023-02-28T14:27:11;6.00;99.90
11242;DHT22;5678;52.370;9.006;2023-02-28T14:30:11;5.90;99.90
11242;DHT22;5678;52.370;9.006;2023-02-28T14:32:47;5.90;99.90
11242;DHT22;5678;52.370;9.006;2023-02-28T14:35:35;5.90;99.90
11242;DHT22;5678;52.370;9.006;2023-02-28T14:38:15;6.40;99.90
11242;DHT22;5678;52.370;9.006;2023-02-28T14:40:45;6.50;99.90
11242;DHT22;5678;52.370;9.006;2023-02-28T14:43:21;6.50;99.90
11242;DHT22;5678;52.370;9.006;2023-02-28T14:45:53;6.10;99.90
11242;DHT22;5678;52.370;9.006;2023-02-28T14:48:23;5.70;99.90
11242;DHT22;5678;52.370;9.006;2023-02-28T14:50:54;6.30;99.90
11242;DHT22;5678;52.370;9.006;2023-02-28T14:53:25;5.90;99.90
11242;DHT22;5678;52.370;9.006;2023-02-28T14:55:54;6.30;99.90
11242;DHT22;5678;52.370;9.006;2023-02-28T14:58:25;6.50;99.90
11242;DHT22;5678;52.370;9.006;2023-02-28T15:00:57;5.70;99.90
11242;DHT22;5678;52.370;9.006;2023-02-28T15:03:31;6.00;99.90
11242;DHT22;5678;52.370;9.006;2023-02-28T15:06:01;6.20;99.90
11242;DHT22;5678;52.370;9.006;2023-02-28T15:08:30;5.70;99.90
11242;DHT22;5678;52.370;9.006;2023-02-28T15:11:04;5.70;99.90
11242;DHT22;5678;52.370;9.006;2023-02-28T15:13:36;5.80;99.90
11242;DHT22;5678;52.370;9.006;2023-02-28T15:16:10;6.90;99.90
11242;DHT22;5678;52.370;9.006;2023-02-28T15:18:44;5.60;99.90
11242;DHT22;5678;52.370;9.006;2023-02-28T15:21:16;5.50;99.90
11242;DHT22;5678;52.370;9.006;2023-02-28T15:23:48;5.50;99.90
11242;DHT22;5678;52.370;9.006;2023-02-28T15:26:19;5.40;99.90
11242;DHT22;5678;52.370;9.006;2023-02-28T15:28:50;5.30;99.90
11242;DHT22;5678;52.370;9.006;2023-02-28T15:31:26;6.00;99.90
11242;DHT22;5678;52.370;9.006;2023-02-28T15:33:55;5.30;99.90
11242;DHT22;5678;52.370;9.006;2023-02-28T15:36:25;5.20;99.90
11242;DHT22;5678;52.370;9.006;2023-02-28T15:38:55;5.20;99.90
11242;DHT22;5678;52.370;9.006;2023-02-28T15:41:37;5.20;99.90
11242;DHT22;5678;52.370;9.006;2023-02-28T15:44:24;5.10;99.90
11242;DHT22;5678;52.370;9.006;2023-02-28T15:46:58;5.00;99.90
11242;DHT22;5678;52.370;9.006;2023-02-28T15:49:28;5.00;99.90
11242;DHT22;5678;52.370;9.006;2023-02-28T15:52:00;5.00;99.90
11242;DHT22;5678;52.370;9.006;2023-02-28T15:54:30;5.10;99.90
11242;DHT22;5678;52.370;9.006;2023-02-28T15:57:04;5.20;99.90
11242;DHT22;5678;52.370;9.006;2023-02-28T15:59:32;4.80;99.90
11242;DHT22;5678;52.370;9.006;2023-02-28T16:02:16;5.20;99.90
11242;DHT22;5678;52.370;9.006;2023-02-28T16:07:43;4.70;99.90
11242;DHT22;5678;52.370;9.006;2023-02-28T16:10:12;4.70;99.90
11242;DHT22;5678;52.370;9.006;2023-02-28T16:12:42;4.60;99.90
11242;DHT22;5678;52.370;9.006;2023-02-28T16:15:21;4.90;99.90
11242;DHT22;5678;52.370;9.006;2023-02-28T16:17:53;4.50;99.90
11242;DHT22;5678;52.370;9.006;2023-02-28T16:20:23;4.50;99.90
11242;DHT22;5678;52.370;9.006;2023-02-28T16:22:51;4.40;99.90
11242;DHT22;5678;52.370;9.006;2023-02-28T16:25:21;5.50;99.90
11242;DHT22;5678;52.370;9.006;2023-02-28T16:27:52;4.30;99.90
11242;DHT22;5678;52.370;9.006;2023-02-28T16:30:22;4.30;99.90
11242;DHT22;5678;52.370;9.006;2023-02-28T16:32:54;4.20;99.90
11242;DHT22;5678;52.370;9.006;2023-02-28T16:35:22;4.20;99.90
11242;DHT22;5678;52.370;9.006;2023-02-28T16:37:51;4.20;99.90
11242;DHT22;5678;52.370;9.006;2023-02-28T16:40:22;4.00;99.90
11242;DHT22;5678;52.370;9.006;2023-02-28T16:42:52;4.60;99.90
11242;DHT22;5678;52.370;9.006;2023-02-28T16:45:23;3.90;99.90
11242;DHT22;5678;52.370;9.006;2023-02-28T16:47:53;3.80;99.90
11242;DHT22;5678;52.370;9.006;2023-02-28T16:50:24;4.80;99.90